Flight Track Log - Related Links

Times and Time Zones

All times are in EDT time to prevent confusion due to time zone crossing. See the N130LH flight status page for this flight to view local times or setup timezone preferences in your user account.

Time Position Orientation Groundspeed Altitude Reporting Facility
EDT Latitude Longitude Course Direction KTS MPH feet Rate Location/Type
Mon 12:22:44 PM 35.6519 -95.9131 270° West 141 162 1,900  Level Kansas City Center
Mon 12:23:57 PM 35.6542 -95.8408 88° East 162 186 2,500 333 Climbing Kansas City Center
Mon 12:24:14 PM 35.6561 -95.8264 81° East 150 173 2,400 228 Descending Kansas City Center
Mon 12:25:16 PM 35.6833 -95.7878 49° Northeast 170 196 2,800 581 Climbing Kansas City Center
Mon 12:26:18 PM 35.6875 -95.8275 277° West 145 167 3,600 732 Climbing Kansas City Center
Mon 12:27:19 PM 35.6892 -95.8736 273° West 132 152 4,300 732 Climbing Kansas City Center
Mon 12:28:00 PM 35.6667 -96.2017 270° West  Level FlightAware Approximate
Mon 12:28:21 PM 35.6903 -95.9125 272° West 121 139 5,100  Level Kansas City Center
Mon 12:29:23 PM 35.6919 -95.9472 273° West 108 124 5,900 780 Climbing Kansas City Center
Mon 12:30:24 PM 35.6936 -95.9906 273° West 105 121 6,700 780 Climbing Kansas City Center
Mon 12:31:26 PM 35.6947 -96.0256 272° West 104 120 7,500 774 Climbing Kansas City Center
Mon 12:32:28 PM 35.6958 -96.0611 272° West 104 120 8,300 677 Climbing Kansas City Center
Mon 12:33:30 PM 35.6967 -96.0931 272° West 100 115 8,900 541 Climbing Kansas City Center
Mon 12:34:19 PM 35.6981 -96.1189 274° West 96 110 9,300 491 Climbing Kansas City Center
Mon 12:35:20 PM 35.6989 -96.1542 272° West 100 115 9,800 293 Climbing Kansas City Center
Mon 12:36:22 PM 35.7008 -96.1947 273° West 112 129 9,900 48 Climbing Kansas City Center
Mon 12:37:24 PM 35.7019 -96.2392 272° West 126 145 9,900  Level Kansas City Center
Mon 12:38:26 PM 35.7039 -96.2933 273° West 131 151 9,900  Level Kansas City Center
Mon 12:39:28 PM 35.7058 -96.3364 273° West 128 147 9,900  Level Kansas City Center
Mon 12:40:29 PM 35.7072 -96.3794 272° West 128 147 9,900  Level Kansas City Center
Mon 12:41:31 PM 35.7086 -96.4236 272° West 128 147 9,900  Level Kansas City Center
Mon 12:42:33 PM 35.7100 -96.4661 272° West 127 146 9,900  Level Kansas City Center
Mon 12:43:35 PM 35.7111 -96.5114 272° West 131 151 9,900 48 Level Kansas City Center
Mon 12:44:37 PM 35.7131 -96.5656 273° West 132 152 10,000  Climbing Kansas City Center
Mon 12:45:38 PM 35.7153 -96.6108 273° West 132 152 9,900  Descending Kansas City Center
Mon 12:46:40 PM 35.7164 -96.6558 272° West 133 153 10,000  Climbing Kansas City Center
Mon 12:47:42 PM 35.7183 -96.7017 273° West 133 153 9,900 -48 Descending Kansas City Center
Mon 12:48:44 PM 35.7194 -96.7472 272° West 134 154 9,900  Level Kansas City Center
Mon 12:49:46 PM 35.7208 -96.7931 272° West 135 155 9,900  Level Kansas City Center
Mon 12:50:48 PM 35.7222 -96.8386 272° West 134 154 9,900  Level Kansas City Center
Mon 12:51:49 PM 35.7247 -96.8919 273° West 131 151 9,900  Level Kansas City Center
Mon 12:52:51 PM 35.7256 -96.9367 271° West 131 151 9,900  Level Kansas City Center
Mon 12:53:53 PM 35.7269 -96.9811 272° West 131 151 9,900  Level Kansas City Center
Mon 12:54:55 PM 35.7283 -97.0258 272° West 131 151 9,900  Level Kansas City Center
Mon 12:55:57 PM 35.7306 -97.0719 273° West 134 154 9,900  Level Kansas City Center
Mon 12:56:59 PM 35.7319 -97.1167 272° West 133 153 9,900  Level Kansas City Center
Mon 12:58:01 PM 35.7336 -97.1706 272° West 132 152 9,900  Level Kansas City Center
Mon 12:59:03 PM 35.7358 -97.2164 273° West 134 154 9,900  Level Kansas City Center
Mon 01:00:05 PM 35.7364 -97.2617 271° West 134 154 9,900  Level Kansas City Center
Mon 01:02:09 PM 35.7392 -97.3503 272° West 131 151 9,900 28 Level Kansas City Center
Mon 01:03:43 PM 35.7378 -97.4314 269° West 131 151 10,000  Climbing Fort Worth Center
Mon 01:04:31 PM 35.7378 -97.4700 270° West 130 150 9,900 -58 Descending Fort Worth Center
Mon 01:05:26 PM 35.7419 -97.5108 277° West 132 152 9,900  Level Fort Worth Center
Mon 01:06:33 PM 35.7439 -97.5567 273° West 132 152 9,900  Level Fort Worth Center
Mon 01:07:33 PM 35.7439 -97.6028 270° West 131 151 9,900  Level Fort Worth Center
Mon 01:08:28 PM 35.7439 -97.6436 270° West 131 151 9,900  Level Fort Worth Center
Mon 01:09:35 PM 35.7458 -97.6975 273° West 134 154 9,900 44 Level Fort Worth Center
Mon 01:10:44 PM 35.7478 -97.7461 273° West 139 160 10,000 46 Climbing Fort Worth Center
Mon 01:11:45 PM 35.7497 -97.7922 273° West 144 166 10,000 -50 Level Fort Worth Center
Mon 01:12:44 PM 35.7517 -97.8356 273° West 144 166 9,900  Descending Fort Worth Center
Mon 01:13:44 PM 35.7536 -97.8817 273° West 139 160 10,000  Climbing Fort Worth Center
Mon 01:14:45 PM 35.7556 -97.9175 274° West 139 160 9,900 -50 Descending Fort Worth Center
Mon 01:15:44 PM 35.7575 -97.9661 273° West 139 160 9,900 50 Level Fort Worth Center
Mon 01:16:45 PM 35.7572 -98.0119 270° West 139 160 10,000 50 Climbing Fort Worth Center
Mon 01:17:44 PM 35.7547 -98.0606 266° West 139 160 10,000  Level Fort Worth Center
Mon 01:18:44 PM 35.7589 -98.1042 277° West 139 160 10,000  Level Fort Worth Center
Mon 01:19:44 PM 35.7564 -98.1503 266° West 139 160 10,000 -50 Level Fort Worth Center
Mon 01:20:45 PM 35.7625 -98.1936 280° West 139 160 9,900 -50 Descending Fort Worth Center
Mon 01:21:44 PM 35.7600 -98.2397 266° West 139 160 9,900 50 Level Fort Worth Center
Mon 01:22:44 PM 35.7619 -98.2858 273° West 139 160 10,000 50 Climbing Fort Worth Center
Mon 01:23:44 PM 35.7636 -98.3319 273° West 139 160 10,000 -50 Level Fort Worth Center
Mon 01:24:44 PM 35.7653 -98.3778 273° West 139 160 9,900  Descending Fort Worth Center
Mon 01:25:44 PM 35.7650 -98.4239 270° West 139 160 10,000  Climbing Fort Worth Center
Mon 01:26:45 PM 35.7644 -98.4725 269° West 139 160 9,900 -50 Descending Fort Worth Center
Mon 01:27:44 PM 35.7661 -98.5186 273° West 139 160 9,900 50 Level Fort Worth Center
Mon 01:28:44 PM 35.7658 -98.5647 270° West 139 160 10,000 50 Climbing Fort Worth Center
Mon 01:29:44 PM 35.7675 -98.6106 273° West 139 160 10,000  Level Fort Worth Center
Mon 01:30:44 PM 35.7692 -98.6567 273° West 139 160 10,000 -50 Level Fort Worth Center
Mon 01:31:44 PM 35.7686 -98.7053 269° West 139 160 9,900  Descending Fort Worth Center
Mon 01:32:44 PM 35.7703 -98.7539 272° West 139 160 10,000  Climbing Fort Worth Center
Mon 01:33:44 PM 35.7697 -98.8000 269° West 139 160 9,900 -50 Descending Fort Worth Center
Mon 01:34:44 PM 35.7692 -98.8536 269° West 139 160 9,900  Level Fort Worth Center
Mon 01:35:45 PM 35.7706 -98.9022 272° West 139 160 9,900  Level Fort Worth Center
Mon 01:36:44 PM 35.7719 -98.9536 272° West 144 166 9,900  Level Fort Worth Center
Mon 01:37:44 PM 35.7736 -99.0022 272° West 144 166 9,900 50 Level Fort Worth Center
Mon 01:38:44 PM 35.7728 -99.0533 269° West 144 166 10,000  Climbing Fort Worth Center
Mon 01:39:45 PM 35.7722 -99.1019 269° West 144 166 9,900  Descending Fort Worth Center
Mon 01:40:44 PM 35.7756 -99.1531 275° West 144 166 10,000  Climbing Fort Worth Center
Mon 01:41:45 PM 35.7750 -99.2042 269° West 144 166 9,900 -50 Descending Fort Worth Center
Mon 01:42:45 PM 35.7764 -99.2556 272° West 144 166 9,900 50 Level Fort Worth Center
Mon 01:43:44 PM 35.7756 -99.3067 269° West 144 166 10,000 50 Climbing Fort Worth Center
Mon 01:44:45 PM 35.7769 -99.3553 272° West 144 166 10,000  Level Fort Worth Center
Mon 01:45:45 PM 35.7761 -99.4064 269° West 144 166 10,000  Level Fort Worth Center
Mon 01:46:44 PM 35.7775 -99.4447 273° West 144 166 10,000 50 Level Fort Worth Center
Mon 01:47:45 PM 35.7786 -99.5011 271° West 144 166 10,100  Climbing Fort Worth Center
Mon 01:49:31 PM 35.7808 -99.5844 272° West 145 167 10,000 -36 Descending Albuquerque Center
Mon 01:50:33 PM 35.7803 -99.6344 269° West 145 167 10,000 48 Level Albuquerque Center
Mon 01:51:35 PM 35.7803 -99.6844 270° West 145 167 10,100 48 Climbing Albuquerque Center
Mon 01:52:37 PM 35.7803 -99.7442 270° West 144 166 10,100  Level Albuquerque Center
Mon 01:53:39 PM 35.7808 -99.7922 271° West 141 162 10,100  Level Albuquerque Center
Mon 01:54:41 PM 35.7817 -99.8403 271° West 140 161 10,100  Level Albuquerque Center
Mon 01:55:43 PM 35.7817 -99.8878 270° West 139 160 10,100 -48 Level Albuquerque Center
Mon 01:56:45 PM 35.7819 -99.9358 270° West 138 159 10,000 -48 Descending Albuquerque Center
Mon 01:57:47 PM 35.7814 -99.9831 269° West 138 159 10,000  Level Albuquerque Center
Mon 01:58:49 PM 35.7814 -100.0303 270° West 138 159 10,000 48 Level Albuquerque Center
Mon 01:59:51 PM 35.7828 -100.0889 272° West 140 161 10,100  Climbing Albuquerque Center
Mon 02:00:53 PM 35.7825 -100.1367 270° West 140 161 10,000 -48 Descending Albuquerque Center
Mon 02:01:55 PM 35.7833 -100.1861 271° West 143 165 10,000  Level Albuquerque Center
Mon 02:02:57 PM 35.7842 -100.2344 271° West 142 163 10,000  Level Albuquerque Center
Mon 02:03:59 PM 35.7831 -100.2814 268° West 139 160 10,000  Level Albuquerque Center
Mon 02:05:01 PM 35.7847 -100.3283 273° West 138 159 10,000  Level Albuquerque Center
Mon 02:06:03 PM 35.7850 -100.3758 270° West 139 160 10,000  Level Albuquerque Center
Mon 02:07:05 PM 35.7839 -100.4319 269° West 137 158 10,000  Level Albuquerque Center
Mon 02:08:07 PM 35.7833 -100.4786 269° West 137 158 10,000  Level Albuquerque Center
Mon 02:09:09 PM 35.7822 -100.5264 268° West 139 160 10,000  Level Albuquerque Center
Mon 02:10:11 PM 35.7828 -100.5758 271° West 142 163 10,000  Level Albuquerque Center
Mon 02:11:13 PM 35.7839 -100.6247 272° West 145 167 10,000  Level Albuquerque Center
Mon 02:12:14 PM 35.7833 -100.6722 269° West 141 162 10,000  Level Albuquerque Center
Mon 02:13:16 PM 35.7831 -100.7186 270° West 137 158 10,000  Level Albuquerque Center
Mon 02:15:20 PM 35.7828 -100.8239 270° West 140 161 10,000  Level Albuquerque Center
Mon 02:16:22 PM 35.7842 -100.8719 272° West 140 161 10,000  Level Albuquerque Center
Mon 02:17:24 PM 35.7833 -100.9175 269° West 135 155 10,000  Level Albuquerque Center
Mon 02:18:25 PM 35.7831 -100.9686 270° West 135 155 10,000  Level Albuquerque Center
Mon 02:19:27 PM 35.7831 -101.0158 270° West 138 159 10,000  Level Albuquerque Center
Mon 02:20:29 PM 35.7836 -101.0647 271° West 141 162 10,000  Level Albuquerque Center
Mon 02:21:31 PM 35.7836 -101.1136 270° West 143 165 10,000  Level Albuquerque Center
Mon 02:22:32 PM 35.7833 -101.1625 270° West 144 166 10,000  Level Albuquerque Center
Mon 02:23:34 PM 35.7831 -101.2119 270° West 145 167 10,000  Level Albuquerque Center
Mon 02:24:36 PM 35.7825 -101.2689 269° West 141 162 10,000  Level Albuquerque Center
Mon 02:25:38 PM 35.7822 -101.3164 270° West 140 161 10,000  Level Albuquerque Center
Mon 02:26:40 PM 35.7817 -101.3636 269° West 139 160 10,000  Level Albuquerque Center
Mon 02:27:42 PM 35.7811 -101.4133 269° West 143 165 10,000  Level Albuquerque Center
Mon 02:28:43 PM 35.7817 -101.4631 271° West 144 166 10,000  Level Albuquerque Center
Mon 02:29:45 PM 35.7814 -101.5119 270° West 145 167 10,000  Level Albuquerque Center
Mon 02:30:47 PM 35.7817 -101.5692 270° West 142 163 10,000  Level Albuquerque Center
Mon 02:31:48 PM 35.7814 -101.6158 270° West 140 161 10,000  Level Albuquerque Center
Mon 02:32:50 PM 35.7803 -101.6633 268° West 140 161 10,000  Level Albuquerque Center
Mon 02:33:52 PM 35.7800 -101.7092 270° West 138 159 10,000  Level Albuquerque Center
Mon 02:34:54 PM 35.7789 -101.7539 268° West 135 155 10,000  Level Albuquerque Center
Mon 02:35:56 PM 35.7786 -101.8003 270° West 135 155 10,000  Level Albuquerque Center
Mon 02:36:57 PM 35.7783 -101.8494 270° West 139 160 10,000  Level Albuquerque Center
Mon 02:37:59 PM 35.7778 -101.9075 269° West 143 165 10,000  Level Albuquerque Center
Mon 02:39:01 PM 35.7778 -101.9553 270° West 142 163 10,000  Level Albuquerque Center
Mon 02:40:03 PM 35.7769 -102.0058 269° West 145 167 10,000  Level Albuquerque Center
Mon 02:41:04 PM 35.7764 -102.0544 269° West 142 163 10,000  Level Albuquerque Center
Mon 02:42:06 PM 35.7758 -102.1033 269° West 145 167 10,000  Level Albuquerque Center
Mon 02:43:08 PM 35.7750 -102.1553 269° West 150 173 10,000  Level Albuquerque Center
Mon 02:44:10 PM 35.7747 -102.2189 270° West 154 177 10,000 48 Level Albuquerque Center
Mon 02:45:12 PM 35.7733 -102.2700 268° West 150 173 10,100 49 Climbing Albuquerque Center
Mon 02:46:13 PM 35.7719 -102.3225 268° West 153 176 10,100 49 Level Albuquerque Center
Mon 02:47:15 PM 35.7719 -102.3783 270° West 161 185 10,200  Climbing Albuquerque Center
Mon 02:48:17 PM 35.7733 -102.4314 272° West 158 182 10,100 -48 Descending Albuquerque Center
Mon 02:49:19 PM 35.7700 -102.4828 265° West 153 176 10,100  Level Albuquerque Center
Mon 02:50:21 PM 35.7689 -102.5467 269° West 155 178 10,100  Level Albuquerque Center
Mon 02:51:23 PM 35.7681 -102.5983 269° West 154 177 10,100  Level Albuquerque Center
Mon 02:52:24 PM 35.7717 -102.6522 275° West 157 181 10,100  Level Albuquerque Center
Mon 02:53:26 PM 35.7689 -102.7078 266° West 161 185 10,100  Level Albuquerque Center
Mon 02:54:28 PM 35.7636 -102.7608 263° West 158 182 10,100  Level Albuquerque Center
Mon 02:55:30 PM 35.7622 -102.8131 268° West 154 177 10,100  Level Albuquerque Center
Mon 02:56:32 PM 35.7644 -102.8669 273° West 157 181 10,100  Level Albuquerque Center
Mon 02:57:34 PM 35.7614 -102.9281 266° West 158 182 10,100  Level Albuquerque Center
Mon 02:58:36 PM 35.7589 -102.9811 267° West 155 178 10,100  Level Albuquerque Center
Mon 02:59:37 PM 35.7639 -103.0328 277° West 151 174 10,100  Level Albuquerque Center
Mon 03:00:39 PM 35.7578 -103.0864 262° West 154 177 10,100 48 Level Albuquerque Center
Mon 03:01:41 PM 35.7581 -103.1503 270° West 158 182 10,200 -48 Climbing Albuquerque Center
Mon 03:02:43 PM 35.7589 -103.2044 271° West 157 181 10,000 -97 Descending Albuquerque Center
Mon 03:03:45 PM 35.7586 -103.2567 270° West 155 178 10,000 48 Level Albuquerque Center
Mon 03:04:47 PM 35.7564 -103.3094 267° West 153 176 10,100  Climbing Albuquerque Center
Mon 03:05:48 PM 35.7528 -103.3617 265° West 154 177 10,000 -49 Descending Albuquerque Center
Mon 03:06:50 PM 35.7550 -103.4189 273° West 163 188 10,000 -48 Level Albuquerque Center
Mon 03:07:52 PM 35.7531 -103.4722 267° West 160 184 9,900  Descending Albuquerque Center
Mon 03:08:54 PM 35.7506 -103.5217 266° West 153 176 10,000 48 Climbing Albuquerque Center
Mon 03:09:56 PM 35.7486 -103.5808 268° West 148 170 10,000  Level Albuquerque Center
Mon 03:10:58 PM 35.7475 -103.6331 269° West 149 171 10,000 49 Level Albuquerque Center
Mon 03:11:59 PM 35.7500 -103.6861 273° West 151 174 10,100 49 Climbing Albuquerque Center
Mon 03:13:01 PM 35.7469 -103.7414 266° West 156 180 10,100 -48 Level Albuquerque Center
Mon 03:14:03 PM 35.7422 -103.7922 263° West 154 177 10,000 -48 Descending Albuquerque Center
Mon 03:15:05 PM 35.7419 -103.8478 270° West 156 180 10,000 -48 Level Albuquerque Center
Mon 03:16:07 PM 35.7439 -103.9028 273° West 159 183 9,900 48 Descending Albuquerque Center
Mon 03:17:09 PM 35.7403 -103.9569 265° West 159 183 10,100 194 Climbing Albuquerque Center
Mon 03:18:11 PM 35.7411 -104.0228 271° West 161 185 10,300 -48 Climbing Albuquerque Center
Mon 03:19:13 PM 35.7386 -104.0797 267° West 164 189 10,000 -145 Descending Albuquerque Center
Mon 03:20:15 PM 35.7314 -104.1311 260° West 158 182 10,000  Level Albuquerque Center
Mon 03:21:17 PM 35.7328 -104.1842 272° West 155 178 10,000 244 Level Albuquerque Center
Mon 03:22:18 PM 35.7336 -104.2300 271° West 146 168 10,500 878 Climbing Albuquerque Center
Mon 03:23:20 PM 35.7311 -104.2700 266° West 131 151 11,800 1,113 Climbing Albuquerque Center
Mon 03:24:22 PM 35.7267 -104.3117 263° West 124 143 12,800 581 Climbing Albuquerque Center
Mon 03:25:24 PM 35.7208 -104.3614 262° West 124 143 13,000 242 Climbing Albuquerque Center
Mon 03:26:26 PM 35.7194 -104.4103 268° West 131 151 13,300 242 Climbing Albuquerque Center
Mon 03:27:28 PM 35.7186 -104.4653 269° West 146 168 13,500 242 Climbing Albuquerque Center
Mon 03:28:30 PM 35.7147 -104.5186 265° West 153 176 13,800 194 Climbing Albuquerque Center
Mon 03:29:32 PM 35.7094 -104.5703 263° West 152 175 13,900 97 Climbing Albuquerque Center
Mon 03:30:34 PM 35.7094 -104.6244 270° West 155 178 14,000 146 Climbing Albuquerque Center
Mon 03:31:35 PM 35.7133 -104.6806 275° West 160 184 14,200 -49 Climbing Albuquerque Center
Mon 03:32:37 PM 35.7114 -104.7431 268° West 158 182 13,900 -145 Descending Albuquerque Center
Mon 03:33:39 PM 35.7072 -104.7944 264° West 154 177 13,900  Level Albuquerque Center
Mon 03:34:41 PM 35.7044 -104.8450 266° West 150 173 13,900  Level Albuquerque Center
Mon 03:35:43 PM 35.7011 -104.8967 265° West 149 171 13,900  Level Albuquerque Center
Mon 03:36:45 PM 35.6986 -104.9492 267° West 151 174 13,900  Level Albuquerque Center
Mon 03:37:47 PM 35.6981 -105.0011 269° West 151 174 13,900  Level Albuquerque Center
Mon 03:38:48 PM 35.6972 -105.0517 269° West 149 171 13,900  Level Albuquerque Center
Mon 03:39:50 PM 35.6953 -105.1044 267° West 151 174 13,900  Level Albuquerque Center
Mon 03:40:52 PM 35.6925 -105.1692 267° West 156 180 13,900  Level Albuquerque Center
Mon 03:41:54 PM 35.6908 -105.2253 268° West 160 184 13,900 48 Level Albuquerque Center
Mon 03:42:56 PM 35.6894 -105.2767 268° West 155 178 14,000 48 Climbing Albuquerque Center
Mon 03:43:58 PM 35.6872 -105.3361 267° West 163 188 14,000 -48 Level Albuquerque Center
Mon 03:45:00 PM 35.6828 -105.3936 265° West 167 192 13,900  Descending Albuquerque Center
Mon 03:46:02 PM 35.6811 -105.4478 268° West 163 188 14,000 48 Climbing Albuquerque Center
Mon 03:47:04 PM 35.6828 -105.5008 272° West 158 182 14,000 48 Level Albuquerque Center
Mon 03:48:06 PM 35.6814 -105.5608 268° West 153 176 14,100 48 Climbing Albuquerque Center
Mon 03:49:08 PM 35.6736 -105.6092 259° West 151 174 14,100  Level Albuquerque Center
Mon 03:50:10 PM 35.6711 -105.6664 267° West 153 176 14,100  Level Albuquerque Center
Mon 03:51:12 PM 35.6686 -105.7131 266° West 153 176 14,100 -48 Level Albuquerque Center
Mon 03:52:14 PM 35.6478 -105.7608 242° Southwest 157 181 14,000  Descending Albuquerque Center
Mon 03:53:16 PM 35.6456 -105.8219 267° West 152 175 14,100 48 Climbing Albuquerque Center
Mon 03:54:18 PM 35.6419 -105.8739 265° West 151 174 14,100  Level Albuquerque Center
Mon 03:55:20 PM 35.6392 -105.9261 266° West 154 177 14,100 -48 Level Albuquerque Center
Mon 03:56:22 PM 35.6367 -105.9781 267° West 152 175 14,000 -48 Descending Albuquerque Center
Mon 03:57:24 PM 35.6353 -106.0308 268° West 154 177 14,000  Level Albuquerque Center
Mon 03:58:26 PM 35.6325 -106.0825 266° West 154 177 14,000  Level Albuquerque Center
Mon 03:59:28 PM 35.6300 -106.1344 267° West 152 175 14,000 -145 Level Albuquerque Center
Mon 04:00:30 PM 35.6281 -106.1958 268° West 150 173 13,700 -387 Descending Albuquerque Center
Mon 04:01:32 PM 35.6278 -106.2553 270° West 168 193 13,200 -484 Descending Albuquerque Center
Mon 04:02:34 PM 35.6261 -106.3142 268° West 172 198 12,700 -484 Descending Albuquerque Center
Mon 04:03:36 PM 35.6256 -106.3708 269° West 168 193 12,200 -387 Descending Albuquerque Center
Mon 04:04:38 PM 35.6217 -106.4314 266° West 175 201 11,900 -97 Descending Albuquerque Center
Mon 04:05:40 PM 35.6169 -106.4853 264° West 165 190 12,000  Climbing Albuquerque Center
Mon 04:06:42 PM 35.6153 -106.5467 268° West 153 176 11,900 -48 Descending Albuquerque Center
Mon 04:07:44 PM 35.6133 -106.5964 267° West 148 170 11,900  Level Albuquerque Center
Mon 04:08:46 PM 35.6117 -106.6492 268° West 152 175 11,900 49 Level Albuquerque Center
Mon 04:09:47 PM 35.6103 -106.6997 268° West 151 174 12,000 49 Climbing Albuquerque Center
Mon 04:10:49 PM 35.6075 -106.7553 266° West 158 182 12,000 -48 Level Albuquerque Center
Mon 04:11:51 PM 35.6053 -106.8078 267° West 157 181 11,900  Descending Albuquerque Center
Mon 04:12:53 PM 35.6031 -106.8636 267° West 140 161 12,000  Climbing Albuquerque Center
Mon 04:13:55 PM 35.6022 -106.9122 269° West 141 162 11,900 -48 Descending Albuquerque Center
Mon 04:14:57 PM 35.5994 -106.9597 266° West 140 161 11,900 48 Level Albuquerque Center
Mon 04:15:59 PM 35.5975 -107.0114 267° West 147 169 12,000  Climbing Albuquerque Center
Mon 04:17:01 PM 35.5944 -107.0631 266° West 151 174 11,900 -48 Descending Albuquerque Center
Mon 04:18:03 PM 35.5931 -107.1144 268° West 152 175 11,900  Level Albuquerque Center
Mon 04:19:05 PM 35.5908 -107.1769 268° West 152 175 11,900  Level Albuquerque Center
Mon 04:20:07 PM 35.5881 -107.2294 266° West 151 174 11,900  Level Albuquerque Center
Mon 04:21:09 PM 35.5853 -107.2769 266° West 147 169 11,900 48 Level Albuquerque Center
Mon 04:22:11 PM 35.5833 -107.3319 268° West 145 167 12,000  Climbing Albuquerque Center
Mon 04:23:13 PM 35.5817 -107.3789 268° West 143 165 11,900  Descending Albuquerque Center
Mon 04:24:15 PM 35.5792 -107.4328 267° West 141 162 12,000 48 Climbing Albuquerque Center
Mon 04:25:17 PM 35.5761 -107.4872 266° West 157 181 12,000 48 Level Albuquerque Center
Mon 04:26:19 PM 35.5722 -107.5500 266° West 165 190 12,100 48 Climbing Albuquerque Center
Mon 04:27:21 PM 35.5742 -107.6000 273° West 158 182 12,100  Level Albuquerque Center
Mon 04:28:23 PM 35.5675 -107.6494 261° West 153 176 12,100  Level Albuquerque Center
Mon 04:29:25 PM 35.5631 -107.7100 265° West 158 182 12,100  Level Albuquerque Center
Mon 04:30:27 PM 35.5644 -107.7614 272° West 158 182 12,100  Level Albuquerque Center
Mon 04:31:29 PM 35.5639 -107.8211 269° West 156 180 12,100  Level Albuquerque Center
Mon 04:32:31 PM 35.5592 -107.8736 264° West 159 183 12,100 -48 Level Albuquerque Center
Mon 04:33:33 PM 35.5525 -107.9342 262° West 161 185 12,000  Descending Albuquerque Center
Mon 04:34:35 PM 35.5511 -107.9839 268° West 157 181 12,100 48 Climbing Albuquerque Center
Mon 04:35:37 PM 35.5525 -108.0408 272° West 152 175 12,100 -48 Level Albuquerque Center
Mon 04:36:39 PM 35.5525 -108.0903 270° West 150 173 12,000 -48 Descending Albuquerque Center
Mon 04:37:41 PM 35.5461 -108.1481 262° West 151 174 12,000  Level Albuquerque Center
Mon 04:38:43 PM 35.5422 -108.1981 265° West 152 175 12,000  Level Albuquerque Center
Mon 04:39:45 PM 35.5406 -108.2461 268° West 151 174 12,000  Level Albuquerque Center
Mon 04:40:47 PM 35.5383 -108.3047 267° West 152 175 12,000 -145 Level Albuquerque Center
Mon 04:41:49 PM 35.5361 -108.3567 267° West 155 178 11,700 -435 Descending Albuquerque Center
Mon 04:42:51 PM 35.5322 -108.4200 266° West 161 185 11,100 -339 Descending Albuquerque Center
Mon 04:43:53 PM 35.5261 -108.4694 261° West 159 183 11,000 -97 Descending Albuquerque Center
Mon 04:44:55 PM 35.5169 -108.5208 258° West 148 170 10,900 -48 Descending Albuquerque Center
Mon 04:45:57 PM 35.5106 -108.5633 260° West 139 160 10,900 -98 Level Albuquerque Center
Mon 04:46:58 PM 35.5039 -108.6131 261° West 134 154 10,700 49 Descending Albuquerque Center
Mon 04:48:00 PM 35.4967 -108.6575 259° West 135 155 11,000 145 Climbing Albuquerque Center
Mon 04:49:02 PM 35.4892 -108.7125 261° West 141 162 11,000  Level Albuquerque Center
Mon 04:50:04 PM 35.4808 -108.7597 258° West 144 166 11,000  Level Albuquerque Center
Mon 04:51:06 PM 35.4725 -108.8067 258° West 146 168 11,000 48 Level Albuquerque Center
Mon 04:52:08 PM 35.4639 -108.8642 260° West 149 171 11,100  Climbing Albuquerque Center
Mon 04:53:10 PM 35.4569 -108.9194 261° West 158 182 11,000  Descending Albuquerque Center
Mon 04:54:12 PM 35.4461 -108.9819 258° West 165 190 11,100  Climbing Albuquerque Center
Mon 04:55:14 PM 35.4358 -109.0344 257° West 165 190 11,000 -97 Descending Albuquerque Center
Mon 04:56:16 PM 35.4317 -109.0883 265° West 153 176 10,900 -146 Descending Albuquerque Center
Mon 04:57:17 PM 35.4319 -109.1250 271° West 131 151 10,700 -537 Descending Albuquerque Center
Mon 04:58:19 PM 35.4669 -109.1119 17° North 163 188 9,800 -677 Descending Albuquerque Center
Mon 04:59:21 PM 35.4581 -109.0539 101° East 158 182 9,300 -484 Descending Albuquerque Center

Login

Don't have an account? Register now (free) for customized features, flight alerts, and more!